sensor_id;sensor_type;location;lat;lon;timestamp;temperature;humidity
39957;DHT22;48483;44.640;7.494;2024-02-26T00:02:01;8.30;99.90
39957;DHT22;48483;44.640;7.494;2024-02-26T00:04:28;8.30;99.90
39957;DHT22;48483;44.640;7.494;2024-02-26T00:06:55;8.30;99.90
39957;DHT22;48483;44.640;7.494;2024-02-26T00:09:22;8.30;99.90
39957;DHT22;48483;44.640;7.494;2024-02-26T00:11:49;8.30;99.90
39957;DHT22;48483;44.640;7.494;2024-02-26T00:14:15;8.30;99.90
39957;DHT22;48483;44.640;7.494;2024-02-26T00:16:42;8.30;99.90
39957;DHT22;48483;44.640;7.494;2024-02-26T00:19:10;8.30;99.90
39957;DHT22;48483;44.640;7.494;2024-02-26T00:21:40;8.30;99.90
39957;DHT22;48483;44.640;7.494;2024-02-26T00:24:06;8.30;99.90
39957;DHT22;48483;44.640;7.494;2024-02-26T00:26:33;8.30;99.90
39957;DHT22;48483;44.640;7.494;2024-02-26T00:29:00;8.30;99.90
39957;DHT22;48483;44.640;7.494;2024-02-26T00:31:27;8.30;99.90
39957;DHT22;48483;44.640;7.494;2024-02-26T00:33:53;8.30;99.90
39957;DHT22;48483;44.640;7.494;2024-02-26T00:36:21;8.20;99.90
39957;DHT22;48483;44.640;7.494;2024-02-26T00:38:48;8.20;99.90
39957;DHT22;48483;44.640;7.494;2024-02-26T00:41:17;8.20;99.90
39957;DHT22;48483;44.640;7.494;2024-02-26T00:43:44;8.30;99.90
39957;DHT22;48483;44.640;7.494;2024-02-26T00:46:10;8.30;99.90
39957;DHT22;48483;44.640;7.494;2024-02-26T00:48:37;8.20;99.90
39957;DHT22;48483;44.640;7.494;2024-02-26T00:51:05;8.20;99.90
39957;DHT22;48483;44.640;7.494;2024-02-26T00:53:33;8.10;99.90
39957;DHT22;48483;44.640;7.494;2024-02-26T00:56:00;8.10;99.90
39957;DHT22;48483;44.640;7.494;2024-02-26T00:58:26;8.10;99.90
39957;DHT22;48483;44.640;7.494;2024-02-26T01:00:53;8.10;99.90
39957;DHT22;48483;44.640;7.494;2024-02-26T01:03:20;8.20;99.90
39957;DHT22;48483;44.640;7.494;2024-02-26T01:05:47;8.10;99.90
39957;DHT22;48483;44.640;7.494;2024-02-26T01:08:13;8.10;99.90
39957;DHT22;48483;44.640;7.494;2024-02-26T01:10:41;8.00;99.90
39957;DHT22;48483;44.640;7.494;2024-02-26T01:13:08;8.10;99.90
39957;DHT22;48483;44.640;7.494;2024-02-26T01:15:35;8.10;99.90
39957;DHT22;48483;44.640;7.494;2024-02-26T01:18:01;8.00;99.90
39957;DHT22;48483;44.640;7.494;2024-02-26T01:20:28;8.00;99.90
39957;DHT22;48483;44.640;7.494;2024-02-26T01:22:55;8.00;99.90
39957;DHT22;48483;44.640;7.494;2024-02-26T01:25:22;8.00;99.90
39957;DHT22;48483;44.640;7.494;2024-02-26T01:27:50;8.00;99.90
39957;DHT22;48483;44.640;7.494;2024-02-26T01:30:16;7.90;99.90
39957;DHT22;48483;44.640;7.494;2024-02-26T01:32:43;8.00;99.90
39957;DHT22;48483;44.640;7.494;2024-02-26T01:35:10;7.90;99.90
39957;DHT22;48483;44.640;7.494;2024-02-26T01:37:38;7.90;99.90
39957;DHT22;48483;44.640;7.494;2024-02-26T01:40:06;7.90;99.90
39957;DHT22;48483;44.640;7.494;2024-02-26T01:42:33;7.90;99.90
39957;DHT22;48483;44.640;7.494;2024-02-26T01:45:01;8.00;99.90
39957;DHT22;48483;44.640;7.494;2024-02-26T01:47:28;8.00;99.90
39957;DHT22;48483;44.640;7.494;2024-02-26T01:49:55;8.00;99.90
39957;DHT22;48483;44.640;7.494;2024-02-26T01:52:22;7.90;99.90
39957;DHT22;48483;44.640;7.494;2024-02-26T01:54:49;7.90;99.90
39957;DHT22;48483;44.640;7.494;2024-02-26T01:57:16;7.90;99.90
39957;DHT22;48483;44.640;7.494;2024-02-26T01:59:44;7.90;99.90
39957;DHT22;48483;44.640;7.494;2024-02-26T02:02:12;7.90;99.90
39957;DHT22;48483;44.640;7.494;2024-02-26T02:04:40;7.90;99.90
39957;DHT22;48483;44.640;7.494;2024-02-26T02:07:08;8.00;99.90
39957;DHT22;48483;44.640;7.494;2024-02-26T02:09:35;8.00;99.90
39957;DHT22;48483;44.640;7.494;2024-02-26T02:12:02;7.80;99.90
39957;DHT22;48483;44.640;7.494;2024-02-26T02:14:28;7.80;99.90
39957;DHT22;48483;44.640;7.494;2024-02-26T02:16:55;7.80;99.90
39957;DHT22;48483;44.640;7.494;2024-02-26T02:19:23;7.80;99.90
39957;DHT22;48483;44.640;7.494;2024-02-26T02:21:51;7.80;99.90
39957;DHT22;48483;44.640;7.494;2024-02-26T02:24:18;7.80;99.90
39957;DHT22;48483;44.640;7.494;2024-02-26T02:26:45;7.80;99.90
39957;DHT22;48483;44.640;7.494;2024-02-26T02:29:12;7.80;99.90
39957;DHT22;48483;44.640;7.494;2024-02-26T02:31:39;7.70;99.90
39957;DHT22;48483;44.640;7.494;2024-02-26T02:34:06;7.70;99.90
39957;DHT22;48483;44.640;7.494;2024-02-26T02:36:32;7.80;99.90
39957;DHT22;48483;44.640;7.494;2024-02-26T02:39:00;7.80;99.90
39957;DHT22;48483;44.640;7.494;2024-02-26T02:41:27;7.80;99.90
39957;DHT22;48483;44.640;7.494;2024-02-26T02:43:56;7.70;99.90
39957;DHT22;48483;44.640;7.494;2024-02-26T02:46:23;7.80;99.90
39957;DHT22;48483;44.640;7.494;2024-02-26T02:48:49;7.70;99.90
39957;DHT22;48483;44.640;7.494;2024-02-26T02:51:16;7.70;99.90
39957;DHT22;48483;44.640;7.494;2024-02-26T02:53:43;7.70;99.90
39957;DHT22;48483;44.640;7.494;2024-02-26T02:56:11;7.70;99.90
39957;DHT22;48483;44.640;7.494;2024-02-26T02:58:37;7.70;99.90
39957;DHT22;48483;44.640;7.494;2024-02-26T03:01:04;7.70;99.90
39957;DHT22;48483;44.640;7.494;2024-02-26T03:03:31;7.70;99.90
39957;DHT22;48483;44.640;7.494;2024-02-26T03:05:58;7.70;99.90
39957;DHT22;48483;44.640;7.494;2024-02-26T03:08:24;7.70;99.90
39957;DHT22;48483;44.640;7.494;2024-02-26T03:10:52;7.70;99.90
39957;DHT22;48483;44.640;7.494;2024-02-26T03:13:20;7.60;99.90
39957;DHT22;48483;44.640;7.494;2024-02-26T03:15:47;7.60;99.90
39957;DHT22;48483;44.640;7.494;2024-02-26T03:18:13;7.60;99.90
39957;DHT22;48483;44.640;7.494;2024-02-26T03:20:40;7.60;99.90
39957;DHT22;48483;44.640;7.494;2024-02-26T03:23:07;7.60;99.90
39957;DHT22;48483;44.640;7.494;2024-02-26T03:25:36;7.60;99.90
39957;DHT22;48483;44.640;7.494;2024-02-26T03:28:03;7.60;99.90
39957;DHT22;48483;44.640;7.494;2024-02-26T03:30:31;7.50;99.90
39957;DHT22;48483;44.640;7.494;2024-02-26T03:32:57;7.50;99.90
39957;DHT22;48483;44.640;7.494;2024-02-26T03:35:24;7.50;99.90
39957;DHT22;48483;44.640;7.494;2024-02-26T03:37:51;7.50;99.90
39957;DHT22;48483;44.640;7.494;2024-02-26T03:40:18;7.50;99.90
39957;DHT22;48483;44.640;7.494;2024-02-26T03:42:46;7.50;99.90
39957;DHT22;48483;44.640;7.494;2024-02-26T03:45:12;7.50;99.90
39957;DHT22;48483;44.640;7.494;2024-02-26T03:47:41;7.50;99.90
39957;DHT22;48483;44.640;7.494;2024-02-26T03:50:08;7.50;99.90
39957;DHT22;48483;44.640;7.494;2024-02-26T03:52:34;7.50;99.90
39957;DHT22;48483;44.640;7.494;2024-02-26T03:55:01;7.50;99.90
39957;DHT22;48483;44.640;7.494;2024-02-26T03:57:28;7.50;99.90
39957;DHT22;48483;44.640;7.494;2024-02-26T03:59:54;7.50;99.90
39957;DHT22;48483;44.640;7.494;2024-02-26T04:02:21;7.50;99.90
39957;DHT22;48483;44.640;7.494;2024-02-26T04:04:50;7.50;99.90
39957;DHT22;48483;44.640;7.494;2024-02-26T04:07:17;7.50;99.90
39957;DHT22;48483;44.640;7.494;2024-02-26T04:09:44;7.50;99.90
39957;DHT22;48483;44.640;7.494;2024-02-26T04:12:11;7.50;99.90
39957;DHT22;48483;44.640;7.494;2024-02-26T04:14:38;7.50;99.90
39957;DHT22;48483;44.640;7.494;2024-02-26T04:17:04;7.50;99.90
39957;DHT22;48483;44.640;7.494;2024-02-26T04:19:31;7.50;99.90
39957;DHT22;48483;44.640;7.494;2024-02-26T04:21:59;7.50;99.90
39957;DHT22;48483;44.640;7.494;2024-02-26T04:24:26;7.40;99.90
39957;DHT22;48483;44.640;7.494;2024-02-26T04:26:52;7.40;99.90
39957;DHT22;48483;44.640;7.494;2024-02-26T04:29:19;7.40;99.90
39957;DHT22;48483;44.640;7.494;2024-02-26T04:31:46;7.50;99.90
39957;DHT22;48483;44.640;7.494;2024-02-26T04:34:14;7.50;99.90
39957;DHT22;48483;44.640;7.494;2024-02-26T04:36:41;7.40;99.90
39957;DHT22;48483;44.640;7.494;2024-02-26T04:39:10;7.40;99.90
39957;DHT22;48483;44.640;7.494;2024-02-26T04:41:36;7.40;99.90
39957;DHT22;48483;44.640;7.494;2024-02-26T04:44:03;7.30;99.90
39957;DHT22;48483;44.640;7.494;2024-02-26T04:46:30;7.30;99.90
39957;DHT22;48483;44.640;7.494;2024-02-26T04:48:56;7.30;99.90
39957;DHT22;48483;44.640;7.494;2024-02-26T04:51:23;7.30;99.90
39957;DHT22;48483;44.640;7.494;2024-02-26T04:53:50;7.20;99.90
39957;DHT22;48483;44.640;7.494;2024-02-26T04:56:18;7.30;99.90
39957;DHT22;48483;44.640;7.494;2024-02-26T04:58:44;7.20;99.90
39957;DHT22;48483;44.640;7.494;2024-02-26T05:01:11;7.20;99.90
39957;DHT22;48483;44.640;7.494;2024-02-26T05:03:38;7.20;99.90
39957;DHT22;48483;44.640;7.494;2024-02-26T05:06:05;7.20;99.90
39957;DHT22;48483;44.640;7.494;2024-02-26T05:08:32;7.20;99.90
39957;DHT22;48483;44.640;7.494;2024-02-26T05:11:02;7.20;99.90
39957;DHT22;48483;44.640;7.494;2024-02-26T05:13:30;7.10;99.90
39957;DHT22;48483;44.640;7.494;2024-02-26T05:15:57;7.20;99.90
39957;DHT22;48483;44.640;7.494;2024-02-26T05:18:24;7.20;99.90
39957;DHT22;48483;44.640;7.494;2024-02-26T05:20:51;7.20;99.90
39957;DHT22;48483;44.640;7.494;2024-02-26T05:23:18;7.20;99.90
39957;DHT22;48483;44.640;7.494;2024-02-26T05:25:44;7.10;99.90
39957;DHT22;48483;44.640;7.494;2024-02-26T05:28:13;7.00;99.90
39957;DHT22;48483;44.640;7.494;2024-02-26T05:30:43;7.00;99.90
39957;DHT22;48483;44.640;7.494;2024-02-26T05:33:10;7.00;99.90
39957;DHT22;48483;44.640;7.494;2024-02-26T05:35:37;7.00;99.90
39957;DHT22;48483;44.640;7.494;2024-02-26T05:38:04;7.00;99.90
39957;DHT22;48483;44.640;7.494;2024-02-26T05:40:30;7.00;99.90
39957;DHT22;48483;44.640;7.494;2024-02-26T05:42:57;7.00;99.90
39957;DHT22;48483;44.640;7.494;2024-02-26T05:45:24;7.10;99.90
39957;DHT22;48483;44.640;7.494;2024-02-26T05:47:52;7.00;99.90
39957;DHT22;48483;44.640;7.494;2024-02-26T05:50:18;7.00;99.90
39957;DHT22;48483;44.640;7.494;2024-02-26T05:52:45;7.10;99.90
39957;DHT22;48483;44.640;7.494;2024-02-26T05:55:12;7.00;99.90
39957;DHT22;48483;44.640;7.494;2024-02-26T05:57:40;7.00;99.90
39957;DHT22;48483;44.640;7.494;2024-02-26T06:00:08;7.00;99.90
39957;DHT22;48483;44.640;7.494;2024-02-26T06:02:41;7.10;99.90
39957;DHT22;48483;44.640;7.494;2024-02-26T06:05:09;7.00;99.90
39957;DHT22;48483;44.640;7.494;2024-02-26T06:07:36;7.00;99.90
39957;DHT22;48483;44.640;7.494;2024-02-26T06:10:03;6.90;99.90
39957;DHT22;48483;44.640;7.494;2024-02-26T06:12:31;7.00;99.90
39957;DHT22;48483;44.640;7.494;2024-02-26T06:14:57;6.90;99.90
39957;DHT22;48483;44.640;7.494;2024-02-26T06:17:27;6.90;99.90
39957;DHT22;48483;44.640;7.494;2024-02-26T06:19:54;6.90;99.90
39957;DHT22;48483;44.640;7.494;2024-02-26T06:22:22;6.90;99.90
39957;DHT22;48483;44.640;7.494;2024-02-26T06:24:49;6.80;99.90
39957;DHT22;48483;44.640;7.494;2024-02-26T06:27:16;6.90;99.90
39957;DHT22;48483;44.640;7.494;2024-02-26T06:29:42;6.90;99.90
39957;DHT22;48483;44.640;7.494;2024-02-26T06:32:09;6.90;99.90
39957;DHT22;48483;44.640;7.494;2024-02-26T06:34:36;6.90;99.90
39957;DHT22;48483;44.640;7.494;2024-02-26T06:37:05;6.90;99.90
39957;DHT22;48483;44.640;7.494;2024-02-26T06:39:33;6.90;99.90
39957;DHT22;48483;44.640;7.494;2024-02-26T06:42:00;6.90;99.90
39957;DHT22;48483;44.640;7.494;2024-02-26T06:44:27;6.80;99.90
39957;DHT22;48483;44.640;7.494;2024-02-26T06:47:03;6.80;99.90
39957;DHT22;48483;44.640;7.494;2024-02-26T06:49:30;6.90;99.90
39957;DHT22;48483;44.640;7.494;2024-02-26T06:51:57;6.90;99.90
39957;DHT22;48483;44.640;7.494;2024-02-26T06:54:24;6.80;99.90
39957;DHT22;48483;44.640;7.494;2024-02-26T06:56:52;6.80;99.90
39957;DHT22;48483;44.640;7.494;2024-02-26T06:59:18;6.80;99.90
39957;DHT22;48483;44.640;7.494;2024-02-26T07:01:46;6.80;99.90
39957;DHT22;48483;44.640;7.494;2024-02-26T07:04:13;6.70;99.90
39957;DHT22;48483;44.640;7.494;2024-02-26T07:06:39;6.70;99.90
39957;DHT22;48483;44.640;7.494;2024-02-26T07:09:06;6.70;99.90
39957;DHT22;48483;44.640;7.494;2024-02-26T07:11:33;6.70;99.90
39957;DHT22;48483;44.640;7.494;2024-02-26T07:14:01;6.60;99.90
39957;DHT22;48483;44.640;7.494;2024-02-26T07:16:28;6.60;99.90
39957;DHT22;48483;44.640;7.494;2024-02-26T07:18:55;6.60;99.90
39957;DHT22;48483;44.640;7.494;2024-02-26T07:21:21;6.60;99.90
39957;DHT22;48483;44.640;7.494;2024-02-26T07:23:48;6.50;99.90
39957;DHT22;48483;44.640;7.494;2024-02-26T07:26:15;6.50;99.90
39957;DHT22;48483;44.640;7.494;2024-02-26T07:28:43;6.60;99.90
39957;DHT22;48483;44.640;7.494;2024-02-26T07:31:12;6.50;99.90
39957;DHT22;48483;44.640;7.494;2024-02-26T07:33:38;6.50;99.90
39957;DHT22;48483;44.640;7.494;2024-02-26T07:36:05;6.50;99.90
39957;DHT22;48483;44.640;7.494;2024-02-26T07:38:32;6.40;99.90
39957;DHT22;48483;44.640;7.494;2024-02-26T07:40:59;6.50;99.90
39957;DHT22;48483;44.640;7.494;2024-02-26T07:43:27;6.60;99.90
39957;DHT22;48483;44.640;7.494;2024-02-26T07:45:54;6.70;99.90
39957;DHT22;48483;44.640;7.494;2024-02-26T07:48:22;6.50;99.90
39957;DHT22;48483;44.640;7.494;2024-02-26T07:50:49;6.30;99.90
39957;DHT22;48483;44.640;7.494;2024-02-26T07:53:16;6.20;99.90
39957;DHT22;48483;44.640;7.494;2024-02-26T07:55:42;6.10;99.90
39957;DHT22;48483;44.640;7.494;2024-02-26T07:58:09;6.00;99.90
39957;DHT22;48483;44.640;7.494;2024-02-26T08:00:36;6.00;99.90
39957;DHT22;48483;44.640;7.494;2024-02-26T08:03:03;5.90;99.90
39957;DHT22;48483;44.640;7.494;2024-02-26T08:05:31;5.80;99.90
39957;DHT22;48483;44.640;7.494;2024-02-26T08:07:57;5.70;99.90
39957;DHT22;48483;44.640;7.494;2024-02-26T08:10:24;5.70;99.90
39957;DHT22;48483;44.640;7.494;2024-02-26T08:12:51;5.70;99.90
39957;DHT22;48483;44.640;7.494;2024-02-26T08:15:18;5.70;99.90
39957;DHT22;48483;44.640;7.494;2024-02-26T08:17:45;5.70;99.90
39957;DHT22;48483;44.640;7.494;2024-02-26T08:20:14;5.60;99.90
39957;DHT22;48483;44.640;7.494;2024-02-26T08:22:42;5.40;99.90
39957;DHT22;48483;44.640;7.494;2024-02-26T08:25:10;5.40;99.90
39957;DHT22;48483;44.640;7.494;2024-02-26T08:27:37;5.30;99.90
39957;DHT22;48483;44.640;7.494;2024-02-26T08:30:04;5.30;99.90
39957;DHT22;48483;44.640;7.494;2024-02-26T08:32:31;5.30;99.90
39957;DHT22;48483;44.640;7.494;2024-02-26T08:34:58;5.30;99.90
39957;DHT22;48483;44.640;7.494;2024-02-26T08:37:25;5.30;99.90
39957;DHT22;48483;44.640;7.494;2024-02-26T08:39:53;5.30;99.90
39957;DHT22;48483;44.640;7.494;2024-02-26T08:42:20;5.20;99.90
39957;DHT22;48483;44.640;7.494;2024-02-26T08:44:47;5.20;99.90
39957;DHT22;48483;44.640;7.494;2024-02-26T08:47:14;5.20;99.90
39957;DHT22;48483;44.640;7.494;2024-02-26T08:49:43;5.10;99.90
39957;DHT22;48483;44.640;7.494;2024-02-26T08:52:10;5.10;99.90
39957;DHT22;48483;44.640;7.494;2024-02-26T08:54:36;5.10;99.90
39957;DHT22;48483;44.640;7.494;2024-02-26T08:57:05;5.10;99.90
39957;DHT22;48483;44.640;7.494;2024-02-26T08:59:32;5.20;99.90
39957;DHT22;48483;44.640;7.494;2024-02-26T09:01:58;5.10;99.90
39957;DHT22;48483;44.640;7.494;2024-02-26T09:04:25;5.20;99.90
39957;DHT22;48483;44.640;7.494;2024-02-26T09:06:53;5.20;99.90
39957;DHT22;48483;44.640;7.494;2024-02-26T09:09:20;5.20;99.90
39957;DHT22;48483;44.640;7.494;2024-02-26T09:11:48;5.10;99.90
39957;DHT22;48483;44.640;7.494;2024-02-26T09:14:19;5.10;99.90
39957;DHT22;48483;44.640;7.494;2024-02-26T09:16:46;5.20;99.90
39957;DHT22;48483;44.640;7.494;2024-02-26T09:19:14;5.20;99.90
39957;DHT22;48483;44.640;7.494;2024-02-26T09:21:43;5.10;99.90
39957;DHT22;48483;44.640;7.494;2024-02-26T09:24:09;5.10;99.90
39957;DHT22;48483;44.640;7.494;2024-02-26T09:26:36;5.10;99.90
39957;DHT22;48483;44.640;7.494;2024-02-26T09:29:03;5.10;99.90
39957;DHT22;48483;44.640;7.494;2024-02-26T09:31:31;5.10;99.90
39957;DHT22;48483;44.640;7.494;2024-02-26T09:33:58;5.10;99.90
39957;DHT22;48483;44.640;7.494;2024-02-26T09:36:25;5.10;99.90
39957;DHT22;48483;44.640;7.494;2024-02-26T09:38:52;5.10;99.90
39957;DHT22;48483;44.640;7.494;2024-02-26T09:41:18;5.10;99.90
39957;DHT22;48483;44.640;7.494;2024-02-26T09:43:45;5.10;99.90
39957;DHT22;48483;44.640;7.494;2024-02-26T09:46:15;5.10;99.90
39957;DHT22;48483;44.640;7.494;2024-02-26T09:48:45;5.00;99.90
39957;DHT22;48483;44.640;7.494;2024-02-26T09:51:14;5.00;99.90
39957;DHT22;48483;44.640;7.494;2024-02-26T09:53:43;5.00;99.90
39957;DHT22;48483;44.640;7.494;2024-02-26T09:56:11;5.00;99.90
39957;DHT22;48483;44.640;7.494;2024-02-26T09:58:39;4.90;99.90
39957;DHT22;48483;44.640;7.494;2024-02-26T10:01:11;4.90;99.90
39957;DHT22;48483;44.640;7.494;2024-02-26T10:03:41;5.00;99.90
39957;DHT22;48483;44.640;7.494;2024-02-26T10:06:10;5.00;99.90
39957;DHT22;48483;44.640;7.494;2024-02-26T10:08:37;5.00;99.90
39957;DHT22;48483;44.640;7.494;2024-02-26T10:11:04;5.00;99.90
39957;DHT22;48483;44.640;7.494;2024-02-26T10:13:31;5.00;99.90
39957;DHT22;48483;44.640;7.494;2024-02-26T10:15:58;5.00;99.90
39957;DHT22;48483;44.640;7.494;2024-02-26T10:18:25;5.00;99.90
39957;DHT22;48483;44.640;7.494;2024-02-26T10:21:01;4.90;99.90
39957;DHT22;48483;44.640;7.494;2024-02-26T10:23:29;5.00;99.90
39957;DHT22;48483;44.640;7.494;2024-02-26T10:25:56;5.00;99.90
39957;DHT22;48483;44.640;7.494;2024-02-26T10:28:23;5.00;99.90
39957;DHT22;48483;44.640;7.494;2024-02-26T10:30:51;5.00;99.90
39957;DHT22;48483;44.640;7.494;2024-02-26T10:33:19;5.10;99.90
39957;DHT22;48483;44.640;7.494;2024-02-26T10:35:46;5.20;99.90
39957;DHT22;48483;44.640;7.494;2024-02-26T10:38:13;5.20;99.90
39957;DHT22;48483;44.640;7.494;2024-02-26T10:40:41;5.20;99.90
39957;DHT22;48483;44.640;7.494;2024-02-26T10:43:08;5.20;99.90
39957;DHT22;48483;44.640;7.494;2024-02-26T10:45:35;5.20;99.90
39957;DHT22;48483;44.640;7.494;2024-02-26T10:48:04;5.30;99.90
39957;DHT22;48483;44.640;7.494;2024-02-26T10:50:31;5.20;99.90
39957;DHT22;48483;44.640;7.494;2024-02-26T10:52:58;5.20;99.90
39957;DHT22;48483;44.640;7.494;2024-02-26T10:55:26;5.20;99.90
39957;DHT22;48483;44.640;7.494;2024-02-26T10:57:55;5.20;99.90
39957;DHT22;48483;44.640;7.494;2024-02-26T11:00:22;5.20;99.90
39957;DHT22;48483;44.640;7.494;2024-02-26T11:02:51;5.20;99.90
39957;DHT22;48483;44.640;7.494;2024-02-26T11:05:17;5.30;99.90
39957;DHT22;48483;44.640;7.494;2024-02-26T11:07:45;5.30;99.90
39957;DHT22;48483;44.640;7.494;2024-02-26T11:10:15;5.40;99.90
39957;DHT22;48483;44.640;7.494;2024-02-26T11:12:43;5.50;99.90
39957;DHT22;48483;44.640;7.494;2024-02-26T11:15:11;5.50;99.90
39957;DHT22;48483;44.640;7.494;2024-02-26T11:17:38;5.50;99.90
39957;DHT22;48483;44.640;7.494;2024-02-26T11:20:25;5.60;99.90
39957;DHT22;48483;44.640;7.494;2024-02-26T11:22:54;5.60;99.90
39957;DHT22;48483;44.640;7.494;2024-02-26T11:25:21;5.70;99.90
39957;DHT22;48483;44.640;7.494;2024-02-26T11:27:50;5.70;99.90
39957;DHT22;48483;44.640;7.494;2024-02-26T11:30:20;5.70;99.90
39957;DHT22;48483;44.640;7.494;2024-02-26T11:32:47;5.70;99.90
39957;DHT22;48483;44.640;7.494;2024-02-26T11:35:15;5.70;99.90
39957;DHT22;48483;44.640;7.494;2024-02-26T11:37:52;5.80;99.90
39957;DHT22;48483;44.640;7.494;2024-02-26T11:40:19;5.90;99.90
39957;DHT22;48483;44.640;7.494;2024-02-26T11:42:46;5.90;99.90
39957;DHT22;48483;44.640;7.494;2024-02-26T11:45:50;5.90;99.90
39957;DHT22;48483;44.640;7.494;2024-02-26T11:48:22;5.80;99.90
39957;DHT22;48483;44.640;7.494;2024-02-26T11:50:50;5.90;99.90
39957;DHT22;48483;44.640;7.494;2024-02-26T11:53:22;5.90;99.90
39957;DHT22;48483;44.640;7.494;2024-02-26T11:56:15;5.90;99.90
39957;DHT22;48483;44.640;7.494;2024-02-26T11:58:46;5.90;99.90
39957;DHT22;48483;44.640;7.494;2024-02-26T12:01:43;5.90;99.90
39957;DHT22;48483;44.640;7.494;2024-02-26T12:04:18;5.90;99.90
39957;DHT22;48483;44.640;7.494;2024-02-26T12:06:49;5.90;99.90
39957;DHT22;48483;44.640;7.494;2024-02-26T12:09:33;5.90;99.90
39957;DHT22;48483;44.640;7.494;2024-02-26T12:12:01;5.90;99.90
39957;DHT22;48483;44.640;7.494;2024-02-26T12:14:28;5.90;99.90
39957;DHT22;48483;44.640;7.494;2024-02-26T12:16:57;5.90;99.90
39957;DHT22;48483;44.640;7.494;2024-02-26T12:19:25;5.80;99.90
39957;DHT22;48483;44.640;7.494;2024-02-26T12:21:52;5.90;99.90
39957;DHT22;48483;44.640;7.494;2024-02-26T12:24:22;5.90;99.90
39957;DHT22;48483;44.640;7.494;2024-02-26T12:26:49;5.90;99.90
39957;DHT22;48483;44.640;7.494;2024-02-26T12:29:16;5.90;99.90
39957;DHT22;48483;44.640;7.494;2024-02-26T12:31:43;5.90;99.90
39957;DHT22;48483;44.640;7.494;2024-02-26T12:34:12;5.90;99.90
39957;DHT22;48483;44.640;7.494;2024-02-26T12:36:40;5.90;99.90
39957;DHT22;48483;44.640;7.494;2024-02-26T12:39:07;5.90;99.90
39957;DHT22;48483;44.640;7.494;2024-02-26T12:41:34;6.00;99.90
39957;DHT22;48483;44.640;7.494;2024-02-26T12:44:01;5.90;99.90
39957;DHT22;48483;44.640;7.494;2024-02-26T12:46:28;6.00;99.90
39957;DHT22;48483;44.640;7.494;2024-02-26T12:48:56;6.00;99.90
39957;DHT22;48483;44.640;7.494;2024-02-26T12:51:27;6.00;99.90
39957;DHT22;48483;44.640;7.494;2024-02-26T12:53:55;6.00;99.90
39957;DHT22;48483;44.640;7.494;2024-02-26T12:56:22;6.10;99.90
39957;DHT22;48483;44.640;7.494;2024-02-26T12:58:50;6.10;99.90
39957;DHT22;48483;44.640;7.494;2024-02-26T13:01:19;6.10;99.90
39957;DHT22;48483;44.640;7.494;2024-02-26T13:03:47;6.00;99.90
39957;DHT22;48483;44.640;7.494;2024-02-26T13:06:15;6.00;99.90
39957;DHT22;48483;44.640;7.494;2024-02-26T13:08:43;6.10;99.90
39957;DHT22;48483;44.640;7.494;2024-02-26T13:11:10;6.00;99.90
39957;DHT22;48483;44.640;7.494;2024-02-26T13:13:37;6.00;99.90
39957;DHT22;48483;44.640;7.494;2024-02-26T13:16:05;6.00;99.90
39957;DHT22;48483;44.640;7.494;2024-02-26T13:18:33;6.00;99.90
39957;DHT22;48483;44.640;7.494;2024-02-26T13:21:08;6.00;99.90
39957;DHT22;48483;44.640;7.494;2024-02-26T13:23:35;6.00;99.90
39957;DHT22;48483;44.640;7.494;2024-02-26T13:26:04;6.00;99.90
39957;DHT22;48483;44.640;7.494;2024-02-26T13:28:31;6.00;99.90
39957;DHT22;48483;44.640;7.494;2024-02-26T13:31:00;6.10;99.90
39957;DHT22;48483;44.640;7.494;2024-02-26T13:33:28;6.10;99.90
39957;DHT22;48483;44.640;7.494;2024-02-26T13:35:55;6.20;99.90
39957;DHT22;48483;44.640;7.494;2024-02-26T13:38:23;6.10;99.90
39957;DHT22;48483;44.640;7.494;2024-02-26T13:40:50;6.20;99.90
39957;DHT22;48483;44.640;7.494;2024-02-26T13:43:18;6.10;99.90
39957;DHT22;48483;44.640;7.494;2024-02-26T13:45:46;6.10;99.90
39957;DHT22;48483;44.640;7.494;2024-02-26T13:48:14;6.10;99.90
39957;DHT22;48483;44.640;7.494;2024-02-26T13:50:42;6.10;99.90
39957;DHT22;48483;44.640;7.494;2024-02-26T13:53:09;6.10;99.90
39957;DHT22;48483;44.640;7.494;2024-02-26T13:55:36;6.20;99.90
39957;DHT22;48483;44.640;7.494;2024-02-26T13:58:03;6.10;99.90
39957;DHT22;48483;44.640;7.494;2024-02-26T14:00:31;6.10;99.90
39957;DHT22;48483;44.640;7.494;2024-02-26T14:03:00;6.10;99.90
39957;DHT22;48483;44.640;7.494;2024-02-26T14:05:27;6.10;99.90
39957;DHT22;48483;44.640;7.494;2024-02-26T14:07:55;6.10;99.90
39957;DHT22;48483;44.640;7.494;2024-02-26T14:10:21;6.10;99.90
39957;DHT22;48483;44.640;7.494;2024-02-26T14:12:48;6.20;99.90
39957;DHT22;48483;44.640;7.494;2024-02-26T14:15:15;6.10;99.90
39957;DHT22;48483;44.640;7.494;2024-02-26T14:17:43;6.10;99.90
39957;DHT22;48483;44.640;7.494;2024-02-26T14:20:10;6.10;99.90
39957;DHT22;48483;44.640;7.494;2024-02-26T14:22:37;6.10;99.90
39957;DHT22;48483;44.640;7.494;2024-02-26T14:25:04;6.20;99.90
39957;DHT22;48483;44.640;7.494;2024-02-26T14:27:31;6.20;99.90
39957;DHT22;48483;44.640;7.494;2024-02-26T14:29:58;6.20;99.90
39957;DHT22;48483;44.640;7.494;2024-02-26T14:32:24;6.10;99.90
39957;DHT22;48483;44.640;7.494;2024-02-26T14:34:52;6.00;99.90
39957;DHT22;48483;44.640;7.494;2024-02-26T14:37:19;5.90;99.90
39957;DHT22;48483;44.640;7.494;2024-02-26T14:39:46;6.10;99.90
39957;DHT22;48483;44.640;7.494;2024-02-26T14:42:14;6.20;99.90
39957;DHT22;48483;44.640;7.494;2024-02-26T14:44:44;6.10;99.90
39957;DHT22;48483;44.640;7.494;2024-02-26T14:47:10;6.20;99.90
39957;DHT22;48483;44.640;7.494;2024-02-26T14:49:37;6.10;99.90
39957;DHT22;48483;44.640;7.494;2024-02-26T14:52:05;6.20;99.90
39957;DHT22;48483;44.640;7.494;2024-02-26T14:54:33;6.20;99.90
39957;DHT22;48483;44.640;7.494;2024-02-26T14:57:04;6.20;99.90
39957;DHT22;48483;44.640;7.494;2024-02-26T14:59:31;6.20;99.90
39957;DHT22;48483;44.640;7.494;2024-02-26T15:01:58;6.20;99.90
39957;DHT22;48483;44.640;7.494;2024-02-26T15:04:26;6.30;99.90
39957;DHT22;48483;44.640;7.494;2024-02-26T15:06:53;6.30;99.90
39957;DHT22;48483;44.640;7.494;2024-02-26T15:09:21;6.30;99.90
39957;DHT22;48483;44.640;7.494;2024-02-26T15:11:48;6.30;99.90
39957;DHT22;48483;44.640;7.494;2024-02-26T15:14:15;6.30;99.90
39957;DHT22;48483;44.640;7.494;2024-02-26T15:16:41;6.30;99.90
39957;DHT22;48483;44.640;7.494;2024-02-26T15:19:08;6.20;99.90
39957;DHT22;48483;44.640;7.494;2024-02-26T15:21:42;6.30;99.90
39957;DHT22;48483;44.640;7.494;2024-02-26T15:24:09;6.30;99.90
39957;DHT22;48483;44.640;7.494;2024-02-26T15:26:39;6.30;99.90
39957;DHT22;48483;44.640;7.494;2024-02-26T15:29:06;6.30;99.90
39957;DHT22;48483;44.640;7.494;2024-02-26T15:31:35;6.30;99.90
39957;DHT22;48483;44.640;7.494;2024-02-26T15:34:03;6.30;99.90
39957;DHT22;48483;44.640;7.494;2024-02-26T15:36:30;6.30;99.90
39957;DHT22;48483;44.640;7.494;2024-02-26T15:38:57;6.30;99.90
39957;DHT22;48483;44.640;7.494;2024-02-26T15:41:24;6.20;99.90
39957;DHT22;48483;44.640;7.494;2024-02-26T15:43:52;6.20;99.90
39957;DHT22;48483;44.640;7.494;2024-02-26T15:46:18;6.20;99.90
39957;DHT22;48483;44.640;7.494;2024-02-26T15:48:45;6.20;99.90